Time;durP1;ratioP1;P1;durP2;ratioP2;P2;SDS_P1;SDS_P2;PMS_P1;PMS_P2;Temp;Humidity;BMP_temperature;BMP_pressure;BME280_temperature;BME280_humidity;BME280_pressure;Samples;Min_cycle;Max_cycle;Signal;HPM_P1;HPM_P2
2022/11/01 00:00:21;;;;;;;71.20;51.37;;;14.70;99.90;;;;;;5093162;28;20531;-47
2022/11/01 00:02:49;;;;;;;76.47;51.83;;;14.50;99.90;;;;;;5094407;28;20406;-47
2022/11/01 00:05:16;;;;;;;62.13;50.77;;;14.60;99.90;;;;;;5094481;28;20425;-48
2022/11/01 00:07:42;;;;;;;59.63;46.93;;;14.40;99.90;;;;;;5094176;28;20865;-48
2022/11/01 00:10:09;;;;;;;66.13;50.03;;;14.70;99.90;;;;;;5093825;28;20866;-48
2022/11/01 00:12:36;;;;;;;71.93;49.83;;;14.40;99.90;;;;;;5094112;28;20447;-47
2022/11/01 00:15:02;;;;;;;58.70;46.33;;;14.50;99.90;;;;;;5094118;28;20420;-47
2022/11/01 00:17:29;;;;;;;69.37;49.70;;;14.50;99.90;;;;;;5093933;28;20762;-47
2022/11/01 00:19:57;;;;;;;59.30;45.97;;;14.60;99.90;;;;;;5093480;28;20476;-47
2022/11/01 00:22:25;;;;;;;56.33;45.90;;;14.40;99.90;;;;;;5093876;28;20439;-47
2022/11/01 00:24:51;;;;;;;64.30;47.27;;;14.20;99.90;;;;;;5093974;28;20469;-47
2022/11/01 00:27:19;;;;;;;61.93;48.77;;;14.70;99.90;;;;;;5093863;28;20827;-47
2022/11/01 00:29:45;;;;;;;62.37;47.90;;;14.60;99.90;;;;;;5093254;28;20760;-47
2022/11/01 00:32:12;;;;;;;62.17;45.63;;;14.60;99.90;;;;;;5093591;28;20430;-48
2022/11/01 00:34:38;;;;;;;52.87;42.33;;;14.70;99.90;;;;;;5093882;28;20444;-47
2022/11/01 00:37:06;;;;;;;54.37;46.40;;;15.00;99.90;;;;;;5093580;28;20434;-47
2022/11/01 00:39:33;;;;;;;55.77;45.40;;;14.80;99.90;;;;;;5093095;28;20476;-46
2022/11/01 00:41:59;;;;;;;53.23;42.43;;;15.20;99.90;;;;;;5093576;28;20429;-46
2022/11/01 00:44:26;;;;;;;55.00;44.60;;;15.00;99.90;;;;;;5093349;28;20433;-48
2022/11/01 00:46:52;;;;;;;54.43;43.27;;;14.60;99.90;;;;;;5093319;28;20485;-47
2022/11/01 00:49:19;;;;;;;62.90;45.83;;;14.40;99.90;;;;;;5093092;28;20437;-48
2022/11/01 00:51:45;;;;;;;55.13;42.70;;;14.80;99.90;;;;;;5093133;28;20423;-47
2022/11/01 00:54:13;;;;;;;63.53;47.43;;;14.90;99.90;;;;;;5093215;28;20774;-48
2022/11/01 00:56:40;;;;;;;58.87;45.27;;;14.50;99.90;;;;;;5093224;28;20395;-47
2022/11/01 00:59:07;;;;;;;58.90;44.77;;;14.90;99.90;;;;;;5092868;28;20460;-48
2022/11/01 01:01:33;;;;;;;57.20;45.80;;;14.50;99.90;;;;;;5093227;28;20487;-48
2022/11/01 01:04:00;;;;;;;51.17;44.13;;;14.80;99.90;;;;;;5093171;28;20395;-47
2022/11/01 01:06:26;;;;;;;54.83;44.57;;;14.50;99.90;;;;;;5093014;28;20425;-49
2022/11/01 01:08:53;;;;;;;59.53;45.80;;;14.80;99.90;;;;;;5092710;28;20806;-47
2022/11/01 01:11:21;;;;;;;59.23;46.07;;;14.40;99.90;;;;;;5091969;28;20450;-46
2022/11/01 01:13:48;;;;;;;54.07;44.10;;;14.80;99.90;;;;;;5092998;28;20476;-46
2022/11/01 01:16:14;;;;;;;57.33;47.30;;;14.50;99.90;;;;;;5092933;28;20438;-45
2022/11/01 01:18:41;;;;;;;60.97;46.23;;;14.70;99.90;;;;;;5092430;28;20429;-47
2022/11/01 01:21:08;;;;;;;57.50;46.50;;;14.60;99.90;;;;;;5092434;28;20487;-47
2022/11/01 01:23:35;;;;;;;60.87;46.47;;;14.50;99.90;;;;;;5093034;28;20785;-46
2022/11/01 01:26:05;;;;;;;60.70;46.17;;;14.70;99.90;;;;;;5092665;28;20437;-46
2022/11/01 01:28:33;;;;;;;57.40;46.57;;;14.80;99.90;;;;;;5092305;28;20436;-47
2022/11/01 01:31:00;;;;;;;52.47;44.60;;;14.20;99.90;;;;;;5092003;28;20476;-47
2022/11/01 01:33:26;;;;;;;53.70;44.83;;;14.40;99.90;;;;;;5092312;28;20411;-48
2022/11/01 01:35:53;;;;;;;56.90;45.30;;;14.40;99.90;;;;;;5074272;28;20896;-47
2022/11/01 01:38:19;;;;;;;61.63;44.67;;;14.40;99.90;;;;;;5092443;28;20772;-48
2022/11/01 01:40:46;;;;;;;57.87;45.27;;;14.50;99.90;;;;;;5092074;28;20481;-48
2022/11/01 01:43:13;;;;;;;58.73;47.10;;;14.50;99.90;;;;;;5074362;28;20422;-47
2022/11/01 01:45:41;;;;;;;58.50;46.83;;;14.40;99.90;;;;;;5092912;28;20551;-46
2022/11/01 01:48:16;;;;;;;53.97;43.47;;;14.60;99.90;;;;;;5092484;28;20430;-47
2022/11/01 01:50:47;;;;;;;57.73;42.90;;;14.40;99.90;;;;;;5092050;28;20440;-47
2022/11/01 01:53:18;;;;;;;54.30;43.97;;;14.40;99.90;;;;;;5074197;28;20445;-48
2022/11/01 01:55:50;;;;;;;49.90;41.40;;;14.20;99.90;;;;;;5092357;28;20437;-47
2022/11/01 01:58:20;;;;;;;56.63;43.53;;;14.50;99.90;;;;;;5092311;28;20497;-47
2022/11/01 02:00:48;;;;;;;48.97;43.47;;;14.30;99.90;;;;;;5092432;28;20479;-47
2022/11/01 02:03:16;;;;;;;48.77;41.83;;;14.50;99.90;;;;;;5094183;28;20797;-47
2022/11/01 02:05:49;;;;;;;50.53;42.77;;;14.40;99.90;;;;;;5093874;28;20433;-48
2022/11/01 02:08:25;;;;;;;58.63;42.70;;;14.50;99.90;;;;;;5094585;28;20428;-47
2022/11/01 02:10:52;;;;;;;50.70;42.40;;;14.30;99.90;;;;;;5093021;28;20472;-48
2022/11/01 02:13:19;;;;;;;52.13;44.50;;;14.20;99.90;;;;;;5092653;28;20422;-47
2022/11/01 02:16:07;;;;;;;51.40;42.67;;;14.30;99.90;;;;;;5092433;28;20494;-47
2022/11/01 02:18:38;;;;;;;61.93;44.13;;;14.10;99.90;;;;;;5092155;28;20429;-47
2022/11/01 02:21:31;;;;;;;49.67;43.10;;;13.70;99.90;;;;;;5074251;28;20495;-47
2022/11/01 02:24:29;;;;;;;46.27;38.90;;;14.20;99.90;;;;;;5098841;28;20428;-48
2022/11/01 02:27:12;;;;;;;57.30;44.43;;;14.10;99.90;;;;;;5098939;28;20443;-48
2022/11/01 02:30:01;;;;;;;54.70;44.73;;;13.90;99.90;;;;;;5098564;28;20473;-48
2022/11/01 02:32:48;;;;;;;55.37;44.93;;;13.90;99.90;;;;;;5098125;28;20436;-47
2022/11/01 02:35:22;;;;;;;54.13;45.60;;;14.40;99.90;;;;;;5095185;28;20452;-47
2022/11/01 02:37:53;;;;;;;56.03;47.53;;;14.50;99.90;;;;;;5099025;28;20851;-48
2022/11/01 02:40:26;;;;;;;55.67;47.23;;;14.30;99.90;;;;;;5098192;28;20825;-47
2022/11/01 02:42:58;;;;;;;62.87;48.27;;;14.60;99.90;;;;;;5098769;28;20433;-47
2022/11/01 02:45:30;;;;;;;58.33;47.00;;;14.10;99.90;;;;;;5098587;28;20428;-48
2022/11/01 02:47:59;;;;;;;59.13;44.60;;;14.20;99.90;;;;;;5098699;28;20432;-47
2022/11/01 02:50:30;;;;;;;56.03;47.10;;;13.80;99.90;;;;;;5098237;28;20448;-46
2022/11/01 02:52:58;;;;;;;57.67;46.10;;;14.40;99.90;;;;;;5098545;28;20411;-46
2022/11/01 02:55:29;;;;;;;64.20;47.43;;;14.10;99.90;;;;;;5098405;28;20446;-46
2022/11/01 02:57:57;;;;;;;65.23;49.77;;;13.70;99.90;;;;;;5098552;28;20439;-47
2022/11/01 03:00:26;;;;;;;61.47;49.80;;;13.70;99.90;;;;;;5097868;28;20897;-47
2022/11/01 03:02:58;;;;;;;58.43;47.67;;;14.10;99.90;;;;;;5098173;28;20436;-48
2022/11/01 03:05:37;;;;;;;58.67;47.80;;;13.80;99.90;;;;;;5098385;28;20441;-47
2022/11/01 03:08:06;;;;;;;70.07;51.97;;;13.80;99.90;;;;;;5098320;28;20432;-47
2022/11/01 03:10:44;;;;;;;63.00;48.17;;;13.90;99.90;;;;;;5097942;28;20454;-46
2022/11/01 03:13:26;;;;;;;64.83;52.43;;;14.10;99.90;;;;;;5098438;28;20429;-46
2022/11/01 03:15:58;;;;;;;56.03;44.47;;;13.80;99.90;;;;;;5098625;28;20768;-46
2022/11/01 03:18:31;;;;;;;59.80;48.17;;;13.80;99.90;;;;;;5098031;28;20815;-46
2022/11/01 03:21:14;;;;;;;61.63;49.63;;;13.80;99.90;;;;;;5098230;28;20476;-46
2022/11/01 03:23:46;;;;;;;57.30;44.77;;;14.00;99.90;;;;;;5098288;28;20431;-47
2022/11/01 03:26:17;;;;;;;55.40;46.37;;;13.80;99.90;;;;;;5098064;28;20464;-46
2022/11/01 03:28:49;;;;;;;69.33;51.10;;;13.30;99.90;;;;;;5097789;28;20434;-47
2022/11/01 03:31:20;;;;;;;51.00;42.23;;;13.80;99.90;;;;;;5097755;28;20445;-46
2022/11/01 03:33:50;;;;;;;65.67;49.37;;;13.90;99.90;;;;;;5096159;28;20412;-47
2022/11/01 03:36:21;;;;;;;60.73;46.40;;;13.70;99.90;;;;;;5094931;28;20792;-47
2022/11/01 03:38:52;;;;;;;51.97;44.20;;;13.80;99.90;;;;;;5076248;28;20441;-46
2022/11/01 03:41:21;;;;;;;53.83;44.90;;;13.90;99.90;;;;;;5094650;28;20458;-47
2022/11/01 03:43:48;;;;;;;57.60;44.83;;;13.60;99.90;;;;;;5094757;28;20933;-47
2022/11/01 03:46:16;;;;;;;58.30;47.60;;;13.80;99.90;;;;;;5094531;28;20440;-48
2022/11/01 03:48:42;;;;;;;64.03;49.33;;;14.10;99.90;;;;;;5094346;28;20519;-46
2022/11/01 03:51:09;;;;;;;53.30;42.53;;;13.80;99.90;;;;;;5094677;28;20426;-46
2022/11/01 03:53:37;;;;;;;60.23;48.60;;;13.80;99.90;;;;;;5094636;28;20404;-47
2022/11/01 03:56:04;;;;;;;55.90;46.60;;;13.80;99.90;;;;;;5094432;28;20452;-48
2022/11/01 03:58:41;;;;;;;57.57;45.10;;;13.70;99.90;;;;;;5075976;28;20486;-47
2022/11/01 04:01:08;;;;;;;53.53;44.67;;;13.90;99.90;;;;;;5094485;28;20838;-48
2022/11/01 04:03:35;;;;;;;48.33;41.37;;;13.60;99.90;;;;;;5076375;28;20436;-48
2022/11/01 04:06:02;;;;;;;58.43;46.63;;;13.40;99.90;;;;;;5094358;28;20827;-47
2022/11/01 04:08:28;;;;;;;53.60;43.23;;;13.80;99.90;;;;;;5094042;28;20406;-47
2022/11/01 04:10:56;;;;;;;60.43;47.80;;;13.80;99.90;;;;;;5094274;28;20957;-47
2022/11/01 04:13:23;;;;;;;53.97;45.57;;;13.80;99.90;;;;;;5094348;28;20428;-49
2022/11/01 04:21:21;;;;;;;51.87;43.73;;;13.70;99.90;;;;;;5093999;28;20468;-48
2022/11/01 04:23:48;;;;;;;58.70;45.33;;;13.60;99.90;;;;;;5075811;28;20452;-47
2022/11/01 04:26:18;;;;;;;62.80;45.00;;;13.50;99.90;;;;;;5094323;28;20412;-47
2022/11/01 04:28:55;;;;;;;58.60;46.20;;;13.50;99.90;;;;;;5093506;28;20435;-47
2022/11/01 04:31:22;;;;;;;53.70;44.70;;;13.30;99.90;;;;;;5099404;22;20500;-44
2022/11/01 04:33:49;;;;;;;45.97;40.53;;;13.60;99.90;;;;;;5073632;28;20786;-43
2022/11/01 04:36:15;;;;;;;62.90;45.63;;;13.60;99.90;;;;;;5073956;28;20803;-44
2022/11/01 04:38:42;;;;;;;57.60;45.27;;;13.40;99.90;;;;;;5074732;28;20453;-44
2022/11/01 04:41:08;;;;;;;58.23;48.53;;;13.40;99.90;;;;;;5073382;28;20479;-44
2022/11/01 04:43:36;;;;;;;55.57;46.73;;;13.30;99.90;;;;;;5073483;28;20434;-43
2022/11/01 04:46:03;;;;;;;58.93;45.80;;;14.10;99.90;;;;;;5073098;28;20436;-44
2022/11/01 04:48:29;;;;;;;58.70;45.53;;;13.50;99.90;;;;;;5072922;28;20433;-43
2022/11/01 04:50:56;;;;;;;59.13;45.90;;;13.50;99.90;;;;;;5072882;28;20456;-46
2022/11/01 04:53:22;;;;;;;56.60;43.80;;;13.40;99.90;;;;;;5072803;28;20495;-44
2022/11/01 04:55:49;;;;;;;54.30;45.53;;;13.80;99.90;;;;;;5073141;28;20960;-44
2022/11/01 04:58:15;;;;;;;53.77;43.57;;;13.40;99.90;;;;;;5072837;28;20402;-44
2022/11/01 05:00:43;;;;;;;53.47;44.90;;;13.50;99.90;;;;;;5072596;28;20432;-46
2022/11/01 05:03:11;;;;;;;56.90;45.60;;;13.40;99.90;;;;;;5073705;28;20424;-44
2022/11/01 05:05:38;;;;;;;59.60;44.47;;;13.60;99.90;;;;;;5072823;28;20939;-44
2022/11/01 05:08:06;;;;;;;57.77;45.43;;;13.70;99.90;;;;;;5073147;28;20426;-45
2022/11/01 05:10:33;;;;;;;61.33;45.77;;;13.40;99.90;;;;;;5072341;28;20464;-45
2022/11/01 05:13:00;;;;;;;57.50;46.43;;;13.90;99.90;;;;;;5073072;28;20440;-45
2022/11/01 05:15:27;;;;;;;61.13;45.97;;;13.30;99.90;;;;;;5072341;28;20415;-45
2022/11/01 05:17:55;;;;;;;60.07;45.60;;;13.80;99.90;;;;;;5072494;28;20930;-44
2022/11/01 05:20:22;;;;;;;55.00;43.30;;;13.70;99.90;;;;;;5073449;28;20436;-44
2022/11/01 05:22:48;;;;;;;60.60;43.20;;;13.30;99.90;;;;;;5073132;28;20473;-44
2022/11/01 05:25:16;;;;;;;61.60;47.67;;;13.60;99.90;;;;;;5073932;28;20487;-44
2022/11/01 05:27:43;;;;;;;58.07;45.87;;;13.60;99.90;;;;;;5073500;28;20412;-46
2022/11/01 05:30:11;;;;;;;59.33;46.27;;;13.60;99.90;;;;;;5073338;28;20917;-44
2022/11/01 05:32:37;;;;;;;57.90;45.67;;;13.40;99.90;;;;;;5074514;28;20930;-43
2022/11/01 05:35:06;;;;;;;55.77;45.70;;;13.50;99.90;;;;;;5071565;28;20475;-45
2022/11/01 05:37:34;;;;;;;56.77;45.67;;;13.50;99.90;;;;;;5071906;28;20437;-45
2022/11/01 05:40:01;;;;;;;55.63;45.03;;;13.80;99.90;;;;;;5071463;28;20914;-46
2022/11/01 05:42:27;;;;;;;52.33;45.37;;;13.50;99.90;;;;;;5072002;28;20475;-43
2022/11/01 05:44:54;;;;;;;60.47;46.20;;;13.60;99.90;;;;;;5071718;28;20436;-44
2022/11/01 05:47:21;;;;;;;53.37;41.67;;;13.10;99.90;;;;;;5071928;28;20434;-43
2022/11/01 05:49:47;;;;;;;61.13;46.70;;;14.00;99.90;;;;;;5069882;28;20791;-44
2022/11/01 05:52:15;;;;;;;58.50;46.40;;;13.40;99.90;;;;;;5071654;28;20822;-43
2022/11/01 05:54:42;;;;;;;55.40;44.97;;;13.70;99.90;;;;;;5071318;28;20880;-44
2022/11/01 05:57:08;;;;;;;50.97;41.80;;;13.50;99.90;;;;;;5071027;28;20433;-44
2022/11/01 05:59:35;;;;;;;54.93;41.77;;;13.30;99.90;;;;;;5071202;28;20433;-44
2022/11/01 06:02:01;;;;;;;56.30;42.20;;;14.00;99.90;;;;;;5071067;28;20491;-45
2022/11/01 06:04:28;;;;;;;56.57;42.70;;;13.40;99.90;;;;;;5071816;28;20429;-44
2022/11/01 06:06:55;;;;;;;54.20;42.80;;;13.50;99.90;;;;;;5071551;28;20869;-44
2022/11/01 06:09:22;;;;;;;53.47;41.50;;;13.90;99.90;;;;;;5070798;28;20826;-43
2022/11/01 06:11:49;;;;;;;56.40;42.40;;;13.50;99.90;;;;;;5071282;28;20879;-43
2022/11/01 06:14:16;;;;;;;63.70;40.60;;;13.60;99.90;;;;;;5071141;28;20984;-46
2022/11/01 06:16:44;;;;;;;50.67;40.83;;;13.40;99.90;;;;;;5071386;28;20433;-45
2022/11/01 06:19:10;;;;;;;50.77;41.20;;;13.10;99.90;;;;;;5070790;28;20433;-45
2022/11/01 06:21:37;;;;;;;49.40;40.03;;;13.70;99.90;;;;;;5070927;28;20471;-45
2022/11/01 06:24:04;;;;;;;53.43;40.90;;;13.30;99.90;;;;;;5071325;28;20436;-43
2022/11/01 06:26:32;;;;;;;48.97;40.90;;;13.40;99.90;;;;;;5071259;28;20448;-44
2022/11/01 06:29:00;;;;;;;46.27;38.73;;;13.30;99.90;;;;;;5070745;28;20430;-44
2022/11/01 06:31:26;;;;;;;49.93;41.00;;;12.90;99.90;;;;;;5070764;28;20482;-46
2022/11/01 06:33:53;;;;;;;47.63;39.60;;;13.40;99.90;;;;;;5071258;28;20436;-44
2022/11/01 06:36:21;;;;;;;46.50;40.10;;;13.50;99.90;;;;;;5069293;28;20467;-44
2022/11/01 06:38:47;;;;;;;49.63;39.77;;;13.60;99.90;;;;;;5070778;28;20417;-44
2022/11/01 06:41:14;;;;;;;58.10;40.10;;;13.60;99.90;;;;;;5070773;28;21068;-44
2022/11/01 06:43:42;;;;;;;52.00;38.67;;;13.30;99.90;;;;;;5070942;28;20464;-44
2022/11/01 06:46:09;;;;;;;45.63;37.37;;;13.40;99.90;;;;;;5070913;28;20447;-44
2022/11/01 06:48:36;;;;;;;48.70;37.90;;;13.60;99.90;;;;;;5070349;28;20413;-43
2022/11/01 06:51:02;;;;;;;46.90;36.67;;;13.50;99.90;;;;;;5071130;28;20437;-44
2022/11/01 06:53:29;;;;;;;44.77;36.20;;;13.90;99.90;;;;;;5070967;28;20537;-45
2022/11/01 06:55:58;;;;;;;40.50;36.10;;;14.00;99.90;;;;;;5070827;28;20430;-44
2022/11/01 06:58:25;;;;;;;50.00;39.53;;;13.60;99.90;;;;;;5070087;28;20437;-45
2022/11/01 07:00:53;;;;;;;45.43;37.13;;;13.80;99.90;;;;;;5070911;28;20459;-44
2022/11/01 07:03:19;;;;;;;44.50;37.40;;;13.30;99.90;;;;;;5071046;28;20452;-44
2022/11/01 07:05:48;;;;;;;42.33;35.63;;;13.80;99.90;;;;;;5070904;28;20423;-44
2022/11/01 07:08:15;;;;;;;42.37;34.83;;;13.80;99.90;;;;;;5070471;28;20786;-43
2022/11/01 07:10:43;;;;;;;46.77;38.10;;;13.70;99.90;;;;;;5073114;28;20449;-49
2022/11/01 07:13:12;;;;;;;49.13;36.80;;;13.80;99.90;;;;;;5074936;28;20433;-47
2022/11/01 07:15:39;;;;;;;41.73;34.60;;;13.90;99.90;;;;;;5072960;28;20443;-45
2022/11/01 07:18:08;;;;;;;51.57;33.90;;;13.80;99.90;;;;;;5074267;28;20838;-44
2022/11/01 07:20:40;;;;;;;42.27;35.00;;;13.80;99.90;;;;;;5074086;28;20445;-44
2022/11/01 07:23:10;;;;;;;50.80;36.03;;;14.20;99.90;;;;;;5074122;28;20481;-44
2022/11/01 07:25:37;;;;;;;41.77;33.87;;;13.40;99.90;;;;;;5074056;28;20519;-44
2022/11/01 07:28:04;;;;;;;46.07;34.57;;;14.10;99.90;;;;;;5074097;28;20787;-46
2022/11/01 07:30:31;;;;;;;40.70;32.60;;;14.20;99.90;;;;;;5071838;28;20473;-44
2022/11/01 07:32:59;;;;;;;44.07;34.40;;;14.10;99.90;;;;;;5074112;28;20439;-47
2022/11/01 07:35:28;;;;;;;44.37;34.40;;;14.10;99.90;;;;;;5074189;28;20428;-46
2022/11/01 07:37:57;;;;;;;38.23;33.47;;;14.00;99.90;;;;;;5074479;28;20429;-45
2022/11/01 07:40:26;;;;;;;36.70;32.47;;;14.40;99.90;;;;;;5073697;28;20420;-45
2022/11/01 07:42:54;;;;;;;34.80;31.17;;;14.20;99.90;;;;;;5073894;28;20555;-44
2022/11/01 07:45:21;;;;;;;44.40;33.30;;;14.60;99.90;;;;;;5073971;28;20438;-44
2022/11/01 07:47:47;;;;;;;36.87;32.37;;;14.80;99.90;;;;;;5073607;28;20430;-45
2022/11/01 07:50:14;;;;;;;34.87;31.07;;;14.60;99.90;;;;;;5074174;28;20803;-44
2022/11/01 07:52:43;;;;;;;36.50;30.77;;;14.40;99.90;;;;;;5074143;28;20774;-45
2022/11/01 07:55:10;;;;;;;38.83;31.03;;;14.30;99.90;;;;;;5073782;28;20934;-44
2022/11/01 07:57:37;;;;;;;39.77;31.23;;;14.60;99.90;;;;;;5075101;28;20756;-47
2022/11/01 08:00:06;;;;;;;33.70;29.70;;;14.70;99.90;;;;;;5073308;28;21032;-44
2022/11/01 08:02:39;;;;;;;35.23;31.03;;;14.50;99.90;;;;;;5073849;28;20985;-44
2022/11/01 08:05:08;;;;;;;37.73;32.47;;;14.40;99.90;;;;;;5073952;28;20413;-43
2022/11/01 08:07:38;;;;;;;35.23;31.63;;;14.60;99.90;;;;;;5073522;28;20532;-46
2022/11/01 08:10:07;;;;;;;32.47;28.90;;;14.70;99.90;;;;;;5072579;28;20426;-45
2022/11/01 08:12:35;;;;;;;33.83;28.10;;;14.50;99.90;;;;;;5073085;28;20751;-44
2022/11/01 08:15:02;;;;;;;34.07;29.60;;;14.60;99.90;;;;;;5073505;28;20415;-44
2022/11/01 08:17:29;;;;;;;34.30;30.70;;;14.70;99.90;;;;;;5071554;28;21040;-45
2022/11/01 08:19:56;;;;;;;32.03;27.33;;;14.20;99.90;;;;;;5072928;28;20426;-45
2022/11/01 08:22:22;;;;;;;30.50;27.20;;;14.80;99.90;;;;;;5072826;28;20454;-46
2022/11/01 08:24:49;;;;;;;29.63;26.47;;;14.90;99.90;;;;;;5072932;28;20442;-47
2022/11/01 08:27:17;;;;;;;30.27;27.20;;;14.60;99.90;;;;;;5073174;28;20509;-45
2022/11/01 08:29:43;;;;;;;33.80;26.80;;;14.70;99.90;;;;;;5072486;28;20819;-45
2022/11/01 08:32:10;;;;;;;29.50;26.20;;;14.80;99.90;;;;;;5072590;28;20473;-45
2022/11/01 08:34:36;;;;;;;32.63;26.27;;;15.10;99.90;;;;;;5072607;28;20429;-45
2022/11/01 08:37:03;;;;;;;31.80;25.50;;;14.80;99.90;;;;;;5073746;28;20487;-46
2022/11/01 08:39:30;;;;;;;33.17;25.70;;;15.10;99.90;;;;;;5073233;28;20795;-45
2022/11/01 08:41:58;;;;;;;28.80;25.00;;;15.00;99.90;;;;;;5072667;28;20462;-45
2022/11/01 08:44:26;;;;;;;32.83;25.17;;;15.40;99.90;;;;;;5072750;28;20949;-45
2022/11/01 08:46:54;;;;;;;33.93;25.80;;;15.00;99.90;;;;;;5073154;28;20438;-45
2022/11/01 08:49:20;;;;;;;28.10;24.70;;;14.70;99.90;;;;;;5072061;28;20429;-44
2022/11/01 08:51:47;;;;;;;27.17;23.40;;;14.90;99.90;;;;;;5072856;28;20457;-44
2022/11/01 08:54:13;;;;;;;26.13;23.33;;;15.40;99.90;;;;;;5072694;28;20744;-46
2022/11/01 08:56:40;;;;;;;36.77;26.60;;;15.00;99.90;;;;;;5072432;28;20406;-45
2022/11/01 08:59:07;;;;;;;29.33;23.10;;;15.40;99.90;;;;;;5072067;28;20433;-45
2022/11/01 09:01:35;;;;;;;26.60;23.90;;;15.50;99.90;;;;;;5072203;28;20834;-45
2022/11/01 09:04:02;;;;;;;32.90;24.27;;;15.20;99.90;;;;;;5072248;28;20577;-47
2022/11/01 09:06:29;;;;;;;35.93;26.50;;;15.80;99.90;;;;;;5072353;28;20437;-44
2022/11/01 09:08:55;;;;;;;28.70;24.20;;;15.60;99.90;;;;;;5072071;28;20438;-45
2022/11/01 09:11:23;;;;;;;27.17;22.27;;;15.70;99.90;;;;;;5071959;28;20450;-46
2022/11/01 09:13:51;;;;;;;33.83;22.80;;;15.70;99.90;;;;;;5072227;28;20403;-48
2022/11/01 09:16:18;;;;;;;26.73;20.87;;;16.20;99.90;;;;;;5071982;28;20422;-47
2022/11/01 09:18:46;;;;;;;29.70;20.87;;;15.80;99.90;;;;;;5071775;28;20887;-44
2022/11/01 09:21:14;;;;;;;22.87;20.27;;;15.90;99.90;;;;;;5072443;28;20458;-46
2022/11/01 09:23:40;;;;;;;24.23;20.70;;;16.50;99.90;;;;;;5071870;28;20485;-46
2022/11/01 09:26:09;;;;;;;29.10;20.67;;;16.20;99.90;;;;;;5070214;28;20948;-44
2022/11/01 09:28:37;;;;;;;23.47;18.77;;;16.10;99.90;;;;;;5072009;28;20464;-44
2022/11/01 09:31:05;;;;;;;21.13;18.90;;;16.30;99.90;;;;;;5071718;28;20473;-43
2022/11/01 09:33:31;;;;;;;25.97;20.30;;;16.20;99.90;;;;;;5069633;28;20491;-44
2022/11/01 09:36:00;;;;;;;31.67;21.17;;;16.50;99.90;;;;;;5071648;28;20429;-44
2022/11/01 09:38:27;;;;;;;23.70;20.10;;;16.40;99.90;;;;;;5071477;28;20440;-45
2022/11/01 09:41:01;;;;;;;31.63;21.87;;;16.20;99.90;;;;;;5071917;28;20454;-44
2022/11/01 09:43:32;;;;;;;24.10;19.33;;;16.40;99.90;;;;;;5071906;28;20483;-45
2022/11/01 09:46:01;;;;;;;31.47;19.33;;;16.50;99.90;;;;;;5071755;28;20448;-46
2022/11/01 09:48:31;;;;;;;23.47;18.50;;;16.10;99.90;;;;;;5071269;28;20769;-44
2022/11/01 09:51:02;;;;;;;21.70;18.40;;;16.70;99.90;;;;;;5071812;28;21009;-45
2022/11/01 09:53:29;;;;;;;27.47;19.10;;;16.60;99.90;;;;;;5071779;28;20438;-44
2022/11/01 09:56:04;;;;;;;25.67;18.07;;;16.10;99.90;;;;;;5071383;28;20438;-45
2022/11/01 09:58:42;;;;;;;23.77;17.43;;;16.50;99.90;;;;;;5070899;28;20434;-44
2022/11/01 10:01:21;;;;;;;20.63;17.63;;;16.50;99.90;;;;;;5070952;28;20722;-45
2022/11/01 10:04:02;;;;;;;22.33;19.17;;;16.80;99.90;;;;;;5071432;28;20516;-45
2022/11/01 10:06:37;;;;;;;22.97;17.43;;;16.70;99.90;;;;;;5071123;28;20821;-46
2022/11/01 10:09:15;;;;;;;26.63;18.30;;;17.20;99.90;;;;;;5070893;28;20512;-46
2022/11/01 10:11:53;;;;;;;20.83;17.40;;;16.90;99.90;;;;;;5070565;28;20460;-44
2022/11/01 10:14:36;;;;;;;18.60;16.20;;;16.60;99.90;;;;;;5070878;28;20434;-44
2022/11/01 10:17:11;;;;;;;18.43;16.47;;;16.90;99.90;;;;;;5071253;28;20450;-44
2022/11/01 10:19:39;;;;;;;26.20;17.63;;;17.30;99.90;;;;;;5070985;28;20933;-45
2022/11/01 10:22:14;;;;;;;23.03;16.80;;;17.00;99.90;;;;;;5071109;28;20464;-45
2022/11/01 10:24:46;;;;;;;24.33;16.73;;;16.80;99.90;;;;;;5071273;28;20447;-44
2022/11/01 10:27:18;;;;;;;20.70;16.80;;;17.00;99.90;;;;;;5071490;28;20419;-45
2022/11/01 10:29:49;;;;;;;15.40;13.80;;;17.20;99.90;;;;;;5077927;28;21013;-45
2022/11/01 10:32:25;;;;;;;28.37;17.50;;;17.00;99.90;;;;;;5071264;28;20449;-45
2022/11/01 10:34:53;;;;;;;27.57;16.67;;;16.90;99.90;;;;;;5071630;28;20443;-47
2022/11/01 10:37:26;;;;;;;18.97;15.60;;;17.00;99.90;;;;;;5070913;28;20440;-46
2022/11/01 10:39:55;;;;;;;18.57;14.53;;;17.00;99.90;;;;;;5070529;28;20433;-47
2022/11/01 10:42:23;;;;;;;19.80;15.63;;;16.90;99.90;;;;;;5050807;28;20501;-49
2022/11/01 10:44:54;;;;;;;16.60;14.90;;;17.60;99.90;;;;;;5066371;28;20452;-46
2022/11/01 10:47:21;;;;;;;28.50;15.60;;;17.10;99.90;;;;;;5075111;28;20812;-48
2022/11/01 10:49:52;;;;;;;21.33;14.70;;;17.00;99.90;;;;;;5074248;28;20453;-45
2022/11/01 10:52:25;;;;;;;24.93;14.97;;;17.30;99.90;;;;;;5074590;28;20829;-45
2022/11/01 10:54:53;;;;;;;23.93;15.80;;;17.40;99.90;;;;;;5074812;28;20523;-46
2022/11/01 10:57:29;;;;;;;24.03;15.23;;;17.20;99.90;;;;;;5074754;28;20494;-46
2022/11/01 10:59:59;;;;;;;24.83;16.23;;;17.40;99.90;;;;;;5074738;28;20455;-46
2022/11/01 11:02:32;;;;;;;20.07;14.40;;;17.00;99.90;;;;;;5074425;28;20426;-45
2022/11/01 11:04:59;;;;;;;26.03;15.43;;;17.30;99.90;;;;;;5074142;28;20952;-45
2022/11/01 11:07:30;;;;;;;28.50;14.90;;;17.50;99.90;;;;;;5074879;28;20443;-45
2022/11/01 11:09:57;;;;;;;18.80;15.20;;;17.00;99.90;;;;;;5074318;28;20511;-48
2022/11/01 11:12:26;;;;;;;18.57;12.80;;;17.50;99.90;;;;;;5074613;28;20455;-47
2022/11/01 11:14:56;;;;;;;13.57;10.83;;;17.10;99.90;;;;;;5074570;28;20807;-46
2022/11/01 11:17:28;;;;;;;20.90;13.10;;;17.40;99.90;;;;;;5074148;28;20435;-46
2022/11/01 11:20:00;;;;;;;18.00;14.57;;;17.60;99.90;;;;;;5074664;28;20527;-46
2022/11/01 11:22:28;;;;;;;17.67;13.27;;;17.40;99.90;;;;;;5071891;28;20496;-48
2022/11/01 11:24:58;;;;;;;17.07;12.07;;;18.10;99.90;;;;;;5072978;28;20511;-46
2022/11/01 11:27:29;;;;;;;19.03;12.83;;;18.10;99.90;;;;;;5074100;28;20455;-45
2022/11/01 11:29:59;;;;;;;11.87;10.20;;;17.90;99.90;;;;;;5073369;28;20419;-46
2022/11/01 11:32:28;;;;;;;13.80;12.13;;;17.80;99.90;;;;;;5073589;28;20471;-47
2022/11/01 11:34:57;;;;;;;17.53;12.00;;;18.20;99.90;;;;;;5074071;28;20847;-46
2022/11/01 11:37:28;;;;;;;16.23;12.27;;;18.20;99.90;;;;;;5073882;28;20803;-46
2022/11/01 11:40:18;;;;;;;14.27;11.07;;;17.90;99.90;;;;;;5073553;28;20441;-46
2022/11/01 11:42:47;;;;;;;20.80;11.57;;;18.30;99.90;;;;;;5074003;28;20440;-45
2022/11/01 11:45:17;;;;;;;12.67;10.40;;;18.40;99.90;;;;;;5073725;28;20469;-49
2022/11/01 11:47:45;;;;;;;13.63;9.73;;;18.50;99.90;;;;;;5073808;28;20821;-45
2022/11/01 11:50:31;;;;;;;14.13;9.90;;;18.50;99.90;;;;;;5072967;28;20472;-47
2022/11/01 11:53:05;;;;;;;15.07;10.20;;;18.20;99.90;;;;;;5073510;28;20594;-47
2022/11/01 11:55:45;;;;;;;14.50;10.17;;;18.70;99.90;;;;;;5073357;28;20420;-45
2022/11/01 11:58:22;;;;;;;14.77;9.70;;;18.20;99.90;;;;;;5073663;28;20525;-46
2022/11/01 12:00:52;;;;;;;16.40;8.93;;;18.70;99.90;;;;;;5073588;28;21032;-46
2022/11/01 12:03:20;;;;;;;14.93;9.93;;;18.40;99.90;;;;;;5073424;28;20836;-46
2022/11/01 12:05:56;;;;;;;11.93;8.30;;;18.00;99.90;;;;;;5073594;28;20458;-46
2022/11/01 12:08:33;;;;;;;12.80;8.60;;;18.30;99.90;;;;;;5072081;28;20448;-49
2022/11/01 12:11:02;;;;;;;14.80;8.50;;;18.20;99.90;;;;;;5073546;28;20459;-46
2022/11/01 12:13:34;;;;;;;14.50;8.80;;;18.50;99.90;;;;;;5073414;28;20428;-48
2022/11/01 12:16:15;;;;;;;23.93;10.17;;;17.90;99.90;;;;;;5073613;28;20769;-47
2022/11/01 12:18:46;;;;;;;11.03;8.70;;;18.10;99.90;;;;;;5073061;28;20449;-46
2022/11/01 12:21:18;;;;;;;16.17;9.60;;;18.20;99.90;;;;;;5073251;28;20452;-47
2022/11/01 12:23:46;;;;;;;11.87;7.50;;;18.40;99.90;;;;;;5072711;28;20481;-47
2022/11/01 12:26:16;;;;;;;16.67;8.50;;;18.20;99.90;;;;;;5073008;28;20898;-45
2022/11/01 12:28:45;;;;;;;15.87;10.20;;;18.00;99.90;;;;;;5072685;28;20835;-46
2022/11/01 12:31:16;;;;;;;18.10;9.07;;;18.10;99.90;;;;;;5073210;28;20472;-46
2022/11/01 12:33:48;;;;;;;14.70;9.07;;;18.20;99.90;;;;;;5071979;28;20449;-45
2022/11/01 12:36:17;;;;;;;17.80;9.67;;;18.20;99.90;;;;;;5072250;28;20532;-48
2022/11/01 12:38:47;;;;;;;15.53;7.77;;;18.40;99.90;;;;;;5072695;28;20441;-45
2022/11/01 12:41:26;;;;;;;11.97;9.03;;;18.00;99.90;;;;;;5072483;28;20995;-46
2022/11/01 12:44:00;;;;;;;13.23;9.07;;;18.30;99.90;;;;;;5072737;28;20571;-47